sensor_id;sensor_type;location;lat;lon;timestamp;P1;durP1;ratioP1;P2;durP2;ratioP2
4971;SDS011;2501;51.214;6.768;2023-09-19T00:02:16;9.77;;;2.47;;
4971;SDS011;2501;51.214;6.768;2023-09-19T00:04:44;7.32;;;2.50;;
4971;SDS011;2501;51.214;6.768;2023-09-19T00:07:13;13.82;;;2.60;;
4971;SDS011;2501;51.214;6.768;2023-09-19T00:09:42;9.00;;;2.58;;
4971;SDS011;2501;51.214;6.768;2023-09-19T00:12:11;13.63;;;3.03;;
4971;SDS011;2501;51.214;6.768;2023-09-19T00:14:43;16.80;;;3.00;;
4971;SDS011;2501;51.214;6.768;2023-09-19T00:17:11;13.10;;;2.60;;
4971;SDS011;2501;51.214;6.768;2023-09-19T00:19:41;12.05;;;3.15;;
4971;SDS011;2501;51.214;6.768;2023-09-19T00:22:14;11.45;;;2.20;;
4971;SDS011;2501;51.214;6.768;2023-09-19T00:24:44;14.70;;;2.65;;
4971;SDS011;2501;51.214;6.768;2023-09-19T00:27:12;10.50;;;3.00;;
4971;SDS011;2501;51.214;6.768;2023-09-19T00:29:43;11.85;;;2.42;;
4971;SDS011;2501;51.214;6.768;2023-09-19T00:32:12;12.05;;;2.40;;
4971;SDS011;2501;51.214;6.768;2023-09-19T00:34:40;7.40;;;2.70;;
4971;SDS011;2501;51.214;6.768;2023-09-19T00:37:08;9.77;;;3.00;;
4971;SDS011;2501;51.214;6.768;2023-09-19T00:39:37;8.57;;;2.40;;
4971;SDS011;2501;51.214;6.768;2023-09-19T00:42:06;11.18;;;2.60;;
4971;SDS011;2501;51.214;6.768;2023-09-19T00:44:34;14.70;;;2.60;;
4971;SDS011;2501;51.214;6.768;2023-09-19T00:47:06;13.20;;;2.63;;
4971;SDS011;2501;51.214;6.768;2023-09-19T00:49:34;9.02;;;2.42;;
4971;SDS011;2501;51.214;6.768;2023-09-19T00:52:03;12.23;;;2.57;;
4971;SDS011;2501;51.214;6.768;2023-09-19T00:54:35;13.50;;;2.40;;
4971;SDS011;2501;51.214;6.768;2023-09-19T00:57:04;7.72;;;2.47;;
4971;SDS011;2501;51.214;6.768;2023-09-19T00:59:33;9.50;;;2.67;;
4971;SDS011;2501;51.214;6.768;2023-09-19T01:02:02;6.75;;;2.33;;
4971;SDS011;2501;51.214;6.768;2023-09-19T01:04:33;12.95;;;3.47;;
4971;SDS011;2501;51.214;6.768;2023-09-19T01:07:02;8.52;;;2.75;;
4971;SDS011;2501;51.214;6.768;2023-09-19T01:09:33;7.63;;;3.00;;
4971;SDS011;2501;51.214;6.768;2023-09-19T01:12:02;12.15;;;2.70;;
4971;SDS011;2501;51.214;6.768;2023-09-19T01:14:37;9.68;;;2.80;;
4971;SDS011;2501;51.214;6.768;2023-09-19T01:17:14;10.88;;;2.50;;
4971;SDS011;2501;51.214;6.768;2023-09-19T01:20:00;10.73;;;2.88;;
4971;SDS011;2501;51.214;6.768;2023-09-19T01:22:46;7.47;;;2.13;;
4971;SDS011;2501;51.214;6.768;2023-09-19T01:28:29;13.93;;;2.60;;
4971;SDS011;2501;51.214;6.768;2023-09-19T01:31:06;10.38;;;2.42;;
4971;SDS011;2501;51.214;6.768;2023-09-19T01:36:29;13.65;;;2.65;;
4971;SDS011;2501;51.214;6.768;2023-09-19T01:39:00;8.18;;;2.60;;
4971;SDS011;2501;51.214;6.768;2023-09-19T01:41:41;8.05;;;2.22;;
4971;SDS011;2501;51.214;6.768;2023-09-19T01:44:19;12.52;;;2.70;;
4971;SDS011;2501;51.214;6.768;2023-09-19T01:46:56;8.17;;;2.97;;
4971;SDS011;2501;51.214;6.768;2023-09-19T01:49:31;7.10;;;2.42;;
4971;SDS011;2501;51.214;6.768;2023-09-19T01:52:11;15.35;;;3.22;;
4971;SDS011;2501;51.214;6.768;2023-09-19T01:54:44;10.95;;;2.70;;
4971;SDS011;2501;51.214;6.768;2023-09-19T01:57:19;15.38;;;2.60;;
4971;SDS011;2501;51.214;6.768;2023-09-19T01:59:52;12.05;;;2.78;;
4971;SDS011;2501;51.214;6.768;2023-09-19T02:02:33;7.13;;;2.70;;
4971;SDS011;2501;51.214;6.768;2023-09-19T02:05:04;12.82;;;3.22;;
4971;SDS011;2501;51.214;6.768;2023-09-19T02:07:33;9.20;;;2.55;;
4971;SDS011;2501;51.214;6.768;2023-09-19T02:10:03;5.78;;;2.42;;
4971;SDS011;2501;51.214;6.768;2023-09-19T02:12:32;6.82;;;2.60;;
4971;SDS011;2501;51.214;6.768;2023-09-19T02:15:01;8.45;;;3.15;;
4971;SDS011;2501;51.214;6.768;2023-09-19T02:17:34;12.27;;;3.10;;
4971;SDS011;2501;51.214;6.768;2023-09-19T02:20:03;7.93;;;2.50;;
4971;SDS011;2501;51.214;6.768;2023-09-19T02:22:35;9.88;;;2.42;;
4971;SDS011;2501;51.214;6.768;2023-09-19T02:25:04;10.55;;;3.00;;
4971;SDS011;2501;51.214;6.768;2023-09-19T02:27:33;11.30;;;2.45;;
4971;SDS011;2501;51.214;6.768;2023-09-19T02:30:03;12.20;;;2.47;;
4971;SDS011;2501;51.214;6.768;2023-09-19T02:32:34;8.70;;;2.78;;
4971;SDS011;2501;51.214;6.768;2023-09-19T02:35:05;9.20;;;2.13;;
4971;SDS011;2501;51.214;6.768;2023-09-19T02:37:36;9.10;;;2.42;;
4971;SDS011;2501;51.214;6.768;2023-09-19T02:40:05;15.97;;;2.73;;
4971;SDS011;2501;51.214;6.768;2023-09-19T02:42:44;6.95;;;2.20;;
4971;SDS011;2501;51.214;6.768;2023-09-19T02:45:15;12.93;;;2.50;;
4971;SDS011;2501;51.214;6.768;2023-09-19T02:47:48;7.40;;;2.10;;
4971;SDS011;2501;51.214;6.768;2023-09-19T02:50:16;9.40;;;2.10;;
4971;SDS011;2501;51.214;6.768;2023-09-19T02:52:46;8.82;;;2.88;;
4971;SDS011;2501;51.214;6.768;2023-09-19T02:55:15;9.93;;;2.40;;
4971;SDS011;2501;51.214;6.768;2023-09-19T02:57:46;10.15;;;2.80;;
4971;SDS011;2501;51.214;6.768;2023-09-19T03:00:16;15.50;;;2.42;;
4971;SDS011;2501;51.214;6.768;2023-09-19T03:02:49;12.73;;;2.80;;
4971;SDS011;2501;51.214;6.768;2023-09-19T03:05:18;5.35;;;2.17;;
4971;SDS011;2501;51.214;6.768;2023-09-19T03:07:47;8.98;;;2.20;;
4971;SDS011;2501;51.214;6.768;2023-09-19T03:10:16;10.20;;;2.50;;
4971;SDS011;2501;51.214;6.768;2023-09-19T03:12:45;11.30;;;2.40;;
4971;SDS011;2501;51.214;6.768;2023-09-19T03:15:14;7.80;;;2.35;;
4971;SDS011;2501;51.214;6.768;2023-09-19T03:17:43;11.57;;;2.70;;
4971;SDS011;2501;51.214;6.768;2023-09-19T03:20:15;11.48;;;2.42;;
4971;SDS011;2501;51.214;6.768;2023-09-19T03:22:44;10.90;;;2.55;;
4971;SDS011;2501;51.214;6.768;2023-09-19T03:25:13;8.63;;;2.47;;
4971;SDS011;2501;51.214;6.768;2023-09-19T03:27:42;15.73;;;3.25;;
4971;SDS011;2501;51.214;6.768;2023-09-19T03:30:11;11.13;;;2.75;;
4971;SDS011;2501;51.214;6.768;2023-09-19T03:32:43;8.30;;;2.50;;
4971;SDS011;2501;51.214;6.768;2023-09-19T03:35:17;12.27;;;2.77;;
4971;SDS011;2501;51.214;6.768;2023-09-19T03:37:46;12.05;;;2.33;;
4971;SDS011;2501;51.214;6.768;2023-09-19T03:40:15;10.88;;;2.40;;
4971;SDS011;2501;51.214;6.768;2023-09-19T03:42:45;15.63;;;3.30;;
4971;SDS011;2501;51.214;6.768;2023-09-19T03:45:14;11.30;;;2.70;;
4971;SDS011;2501;51.214;6.768;2023-09-19T03:47:43;11.73;;;2.72;;
4971;SDS011;2501;51.214;6.768;2023-09-19T03:50:13;6.57;;;2.33;;
4971;SDS011;2501;51.214;6.768;2023-09-19T03:52:45;12.60;;;2.80;;
4971;SDS011;2501;51.214;6.768;2023-09-19T03:55:13;14.20;;;2.97;;
4971;SDS011;2501;51.214;6.768;2023-09-19T03:57:42;10.43;;;2.60;;
4971;SDS011;2501;51.214;6.768;2023-09-19T04:00:15;11.05;;;2.67;;
4971;SDS011;2501;51.214;6.768;2023-09-19T04:02:46;12.82;;;2.92;;
4971;SDS011;2501;51.214;6.768;2023-09-19T04:05:15;13.93;;;3.17;;
4971;SDS011;2501;51.214;6.768;2023-09-19T04:07:46;11.85;;;3.15;;
4971;SDS011;2501;51.214;6.768;2023-09-19T04:10:15;9.07;;;2.22;;
4971;SDS011;2501;51.214;6.768;2023-09-19T04:12:50;12.73;;;2.83;;
4971;SDS011;2501;51.214;6.768;2023-09-19T04:15:20;8.30;;;2.60;;
4971;SDS011;2501;51.214;6.768;2023-09-19T04:17:49;12.48;;;2.65;;
4971;SDS011;2501;51.214;6.768;2023-09-19T04:20:18;10.68;;;2.80;;
4971;SDS011;2501;51.214;6.768;2023-09-19T04:22:50;12.18;;;2.78;;
4971;SDS011;2501;51.214;6.768;2023-09-19T04:25:19;7.25;;;2.60;;
4971;SDS011;2501;51.214;6.768;2023-09-19T04:27:48;9.90;;;2.97;;
4971;SDS011;2501;51.214;6.768;2023-09-19T04:30:16;8.98;;;3.08;;
4971;SDS011;2501;51.214;6.768;2023-09-19T04:32:46;16.73;;;2.87;;
4971;SDS011;2501;51.214;6.768;2023-09-19T04:35:15;8.13;;;2.40;;
4971;SDS011;2501;51.214;6.768;2023-09-19T04:37:44;12.82;;;2.95;;
4971;SDS011;2501;51.214;6.768;2023-09-19T04:40:15;17.05;;;3.45;;
4971;SDS011;2501;51.214;6.768;2023-09-19T04:42:44;11.82;;;3.20;;
4971;SDS011;2501;51.214;6.768;2023-09-19T04:45:13;14.52;;;3.20;;
4971;SDS011;2501;51.214;6.768;2023-09-19T04:47:41;14.20;;;3.50;;
4971;SDS011;2501;51.214;6.768;2023-09-19T04:50:11;13.20;;;3.08;;
4971;SDS011;2501;51.214;6.768;2023-09-19T04:52:40;16.40;;;3.42;;
4971;SDS011;2501;51.214;6.768;2023-09-19T04:55:10;12.98;;;3.40;;
4971;SDS011;2501;51.214;6.768;2023-09-19T04:57:44;9.40;;;3.07;;
4971;SDS011;2501;51.214;6.768;2023-09-19T05:00:13;11.35;;;3.10;;
4971;SDS011;2501;51.214;6.768;2023-09-19T05:02:45;11.77;;;3.08;;
4971;SDS011;2501;51.214;6.768;2023-09-19T05:05:16;17.23;;;3.60;;
4971;SDS011;2501;51.214;6.768;2023-09-19T05:07:47;17.20;;;3.53;;
4971;SDS011;2501;51.214;6.768;2023-09-19T05:10:16;12.60;;;3.42;;
4971;SDS011;2501;51.214;6.768;2023-09-19T05:12:48;9.82;;;2.97;;
4971;SDS011;2501;51.214;6.768;2023-09-19T05:15:17;9.88;;;2.70;;
4971;SDS011;2501;51.214;6.768;2023-09-19T05:17:47;11.18;;;3.15;;
4971;SDS011;2501;51.214;6.768;2023-09-19T05:20:19;12.35;;;3.35;;
4971;SDS011;2501;51.214;6.768;2023-09-19T05:22:57;11.23;;;3.33;;
4971;SDS011;2501;51.214;6.768;2023-09-19T05:25:27;11.85;;;3.10;;
4971;SDS011;2501;51.214;6.768;2023-09-19T05:27:58;14.32;;;3.60;;
4971;SDS011;2501;51.214;6.768;2023-09-19T05:30:28;14.23;;;3.75;;
4971;SDS011;2501;51.214;6.768;2023-09-19T05:32:57;10.60;;;3.40;;
4971;SDS011;2501;51.214;6.768;2023-09-19T05:35:27;10.38;;;3.05;;
4971;SDS011;2501;51.214;6.768;2023-09-19T05:37:56;14.98;;;3.10;;
4971;SDS011;2501;51.214;6.768;2023-09-19T05:40:25;16.15;;;3.50;;
4971;SDS011;2501;51.214;6.768;2023-09-19T05:42:54;14.05;;;2.92;;
4971;SDS011;2501;51.214;6.768;2023-09-19T05:45:25;14.97;;;3.10;;
4971;SDS011;2501;51.214;6.768;2023-09-19T05:47:54;10.93;;;3.17;;
4971;SDS011;2501;51.214;6.768;2023-09-19T05:50:29;16.80;;;3.70;;
4971;SDS011;2501;51.214;6.768;2023-09-19T05:52:59;16.97;;;3.60;;
4971;SDS011;2501;51.214;6.768;2023-09-19T05:55:29;16.02;;;3.50;;
4971;SDS011;2501;51.214;6.768;2023-09-19T05:57:57;15.35;;;3.20;;
4971;SDS011;2501;51.214;6.768;2023-09-19T06:00:31;11.25;;;3.10;;
4971;SDS011;2501;51.214;6.768;2023-09-19T06:02:59;14.93;;;2.88;;
4971;SDS011;2501;51.214;6.768;2023-09-19T06:05:28;12.30;;;2.90;;
4971;SDS011;2501;51.214;6.768;2023-09-19T06:07:57;16.63;;;2.88;;
4971;SDS011;2501;51.214;6.768;2023-09-19T06:10:26;12.48;;;3.72;;
4971;SDS011;2501;51.214;6.768;2023-09-19T06:12:57;26.67;;;7.63;;
4971;SDS011;2501;51.214;6.768;2023-09-19T06:15:25;27.05;;;7.03;;
4971;SDS011;2501;51.214;6.768;2023-09-19T06:17:58;26.20;;;6.63;;
4971;SDS011;2501;51.214;6.768;2023-09-19T06:20:27;22.65;;;7.55;;
4971;SDS011;2501;51.214;6.768;2023-09-19T06:22:56;22.85;;;7.22;;
4971;SDS011;2501;51.214;6.768;2023-09-19T06:25:27;21.50;;;7.22;;
4971;SDS011;2501;51.214;6.768;2023-09-19T06:27:55;11.50;;;3.30;;
4971;SDS011;2501;51.214;6.768;2023-09-19T06:30:24;21.02;;;5.95;;
4971;SDS011;2501;51.214;6.768;2023-09-19T06:33:00;21.50;;;5.10;;
4971;SDS011;2501;51.214;6.768;2023-09-19T06:35:30;21.00;;;4.35;;
4971;SDS011;2501;51.214;6.768;2023-09-19T06:38:02;17.43;;;4.50;;
4971;SDS011;2501;51.214;6.768;2023-09-19T06:40:31;13.70;;;3.40;;
4971;SDS011;2501;51.214;6.768;2023-09-19T06:42:59;18.58;;;3.60;;
4971;SDS011;2501;51.214;6.768;2023-09-19T06:45:29;11.93;;;3.03;;
4971;SDS011;2501;51.214;6.768;2023-09-19T06:48:00;10.40;;;2.90;;
4971;SDS011;2501;51.214;6.768;2023-09-19T06:50:30;11.15;;;2.97;;
4971;SDS011;2501;51.214;6.768;2023-09-19T06:52:59;15.25;;;3.60;;
4971;SDS011;2501;51.214;6.768;2023-09-19T06:55:28;11.30;;;2.70;;
4971;SDS011;2501;51.214;6.768;2023-09-19T06:57:57;15.77;;;3.17;;
4971;SDS011;2501;51.214;6.768;2023-09-19T07:00:25;9.82;;;3.08;;
4971;SDS011;2501;51.214;6.768;2023-09-19T07:03:00;15.53;;;3.10;;
4971;SDS011;2501;51.214;6.768;2023-09-19T07:05:35;19.37;;;3.30;;
4971;SDS011;2501;51.214;6.768;2023-09-19T07:08:05;11.15;;;2.72;;
4971;SDS011;2501;51.214;6.768;2023-09-19T07:10:35;8.77;;;2.97;;
4971;SDS011;2501;51.214;6.768;2023-09-19T07:13:05;11.05;;;3.20;;
4971;SDS011;2501;51.214;6.768;2023-09-19T07:15:36;24.80;;;3.30;;
4971;SDS011;2501;51.214;6.768;2023-09-19T07:18:14;12.35;;;2.80;;
4971;SDS011;2501;51.214;6.768;2023-09-19T07:20:45;13.07;;;3.97;;
4971;SDS011;2501;51.214;6.768;2023-09-19T07:23:17;16.27;;;2.95;;
4971;SDS011;2501;51.214;6.768;2023-09-19T07:25:46;14.88;;;2.80;;
4971;SDS011;2501;51.214;6.768;2023-09-19T07:28:14;12.77;;;3.30;;
4971;SDS011;2501;51.214;6.768;2023-09-19T07:30:43;15.00;;;3.17;;
4971;SDS011;2501;51.214;6.768;2023-09-19T07:33:14;12.93;;;2.90;;
4971;SDS011;2501;51.214;6.768;2023-09-19T07:35:44;15.63;;;3.30;;
4971;SDS011;2501;51.214;6.768;2023-09-19T07:38:13;10.95;;;3.20;;
4971;SDS011;2501;51.214;6.768;2023-09-19T07:40:42;12.40;;;3.00;;
4971;SDS011;2501;51.214;6.768;2023-09-19T07:43:11;12.35;;;3.30;;
4971;SDS011;2501;51.214;6.768;2023-09-19T07:45:39;11.45;;;2.80;;
4971;SDS011;2501;51.214;6.768;2023-09-19T07:48:08;12.25;;;3.40;;
4971;SDS011;2501;51.214;6.768;2023-09-19T07:50:42;8.95;;;2.38;;
4971;SDS011;2501;51.214;6.768;2023-09-19T07:53:11;11.93;;;3.00;;
4971;SDS011;2501;51.214;6.768;2023-09-19T07:55:42;14.32;;;3.40;;
4971;SDS011;2501;51.214;6.768;2023-09-19T07:58:13;14.82;;;4.10;;
4971;SDS011;2501;51.214;6.768;2023-09-19T08:00:41;12.55;;;3.10;;
4971;SDS011;2501;51.214;6.768;2023-09-19T08:03:10;14.13;;;3.30;;
4971;SDS011;2501;51.214;6.768;2023-09-19T08:05:42;16.07;;;4.40;;
4971;SDS011;2501;51.214;6.768;2023-09-19T08:08:13;14.77;;;4.10;;
4971;SDS011;2501;51.214;6.768;2023-09-19T08:10:42;6.80;;;2.70;;
4971;SDS011;2501;51.214;6.768;2023-09-19T08:13:10;15.90;;;3.80;;
4971;SDS011;2501;51.214;6.768;2023-09-19T08:15:42;9.60;;;2.95;;
4971;SDS011;2501;51.214;6.768;2023-09-19T08:18:11;16.05;;;4.18;;
4971;SDS011;2501;51.214;6.768;2023-09-19T08:20:43;13.32;;;4.30;;
4971;SDS011;2501;51.214;6.768;2023-09-19T08:23:16;15.77;;;3.83;;
4971;SDS011;2501;51.214;6.768;2023-09-19T08:25:46;22.45;;;5.13;;
4971;SDS011;2501;51.214;6.768;2023-09-19T08:28:14;12.77;;;3.42;;
4971;SDS011;2501;51.214;6.768;2023-09-19T08:30:47;14.05;;;3.15;;
4971;SDS011;2501;51.214;6.768;2023-09-19T08:33:16;13.35;;;3.10;;
4971;SDS011;2501;51.214;6.768;2023-09-19T08:35:47;14.95;;;3.70;;
4971;SDS011;2501;51.214;6.768;2023-09-19T08:38:15;12.17;;;4.13;;
4971;SDS011;2501;51.214;6.768;2023-09-19T08:40:45;18.05;;;5.20;;
4971;SDS011;2501;51.214;6.768;2023-09-19T08:43:13;11.50;;;4.70;;
4971;SDS011;2501;51.214;6.768;2023-09-19T08:45:42;16.05;;;3.50;;
4971;SDS011;2501;51.214;6.768;2023-09-19T08:48:13;17.85;;;4.07;;
4971;SDS011;2501;51.214;6.768;2023-09-19T08:50:50;13.23;;;2.70;;
4971;SDS011;2501;51.214;6.768;2023-09-19T08:53:26;12.32;;;4.00;;
4971;SDS011;2501;51.214;6.768;2023-09-19T08:55:58;11.95;;;3.40;;
4971;SDS011;2501;51.214;6.768;2023-09-19T08:58:30;12.07;;;3.05;;
4971;SDS011;2501;51.214;6.768;2023-09-19T09:01:02;12.13;;;3.45;;
4971;SDS011;2501;51.214;6.768;2023-09-19T09:03:33;11.88;;;3.17;;
4971;SDS011;2501;51.214;6.768;2023-09-19T09:06:07;10.05;;;2.83;;
4971;SDS011;2501;51.214;6.768;2023-09-19T09:08:40;10.83;;;2.90;;
4971;SDS011;2501;51.214;6.768;2023-09-19T09:11:10;7.50;;;2.80;;
4971;SDS011;2501;51.214;6.768;2023-09-19T09:13:39;10.98;;;2.95;;
4971;SDS011;2501;51.214;6.768;2023-09-19T09:16:07;11.35;;;2.97;;
4971;SDS011;2501;51.214;6.768;2023-09-19T09:18:37;11.23;;;2.73;;
4971;SDS011;2501;51.214;6.768;2023-09-19T09:21:09;9.50;;;2.47;;
4971;SDS011;2501;51.214;6.768;2023-09-19T09:23:40;12.98;;;2.95;;
4971;SDS011;2501;51.214;6.768;2023-09-19T09:26:09;6.65;;;2.60;;
4971;SDS011;2501;51.214;6.768;2023-09-19T09:28:44;8.57;;;2.97;;
4971;SDS011;2501;51.214;6.768;2023-09-19T09:31:24;9.70;;;2.87;;
4971;SDS011;2501;51.214;6.768;2023-09-19T09:33:53;10.38;;;2.60;;
4971;SDS011;2501;51.214;6.768;2023-09-19T09:36:36;8.57;;;2.30;;
4971;SDS011;2501;51.214;6.768;2023-09-19T09:39:06;8.50;;;2.90;;
4971;SDS011;2501;51.214;6.768;2023-09-19T09:41:44;13.18;;;2.90;;
4971;SDS011;2501;51.214;6.768;2023-09-19T09:44:13;12.67;;;3.37;;
4971;SDS011;2501;51.214;6.768;2023-09-19T09:46:44;17.35;;;4.95;;
4971;SDS011;2501;51.214;6.768;2023-09-19T09:49:49;15.23;;;4.30;;
4971;SDS011;2501;51.214;6.768;2023-09-19T09:52:34;15.00;;;5.70;;
4971;SDS011;2501;51.214;6.768;2023-09-19T09:55:12;12.95;;;4.95;;
4971;SDS011;2501;51.214;6.768;2023-09-19T09:57:40;31.60;;;11.35;;
4971;SDS011;2501;51.214;6.768;2023-09-19T10:00:10;21.88;;;6.72;;
4971;SDS011;2501;51.214;6.768;2023-09-19T10:02:45;9.73;;;3.33;;
4971;SDS011;2501;51.214;6.768;2023-09-19T10:05:14;47.17;;;15.93;;
4971;SDS011;2501;51.214;6.768;2023-09-19T10:08:09;15.13;;;4.40;;
4971;SDS011;2501;51.214;6.768;2023-09-19T10:10:44;10.52;;;2.75;;
4971;SDS011;2501;51.214;6.768;2023-09-19T10:13:19;19.85;;;5.82;;
4971;SDS011;2501;51.214;6.768;2023-09-19T10:15:50;15.33;;;4.53;;
4971;SDS011;2501;51.214;6.768;2023-09-19T10:18:20;22.15;;;6.45;;
4971;SDS011;2501;51.214;6.768;2023-09-19T10:20:50;31.75;;;11.15;;
4971;SDS011;2501;51.214;6.768;2023-09-19T10:23:22;12.68;;;4.18;;
4971;SDS011;2501;51.214;6.768;2023-09-19T10:25:55;24.20;;;8.32;;
4971;SDS011;2501;51.214;6.768;2023-09-19T10:28:26;22.50;;;5.70;;
4971;SDS011;2501;51.214;6.768;2023-09-19T10:30:56;20.50;;;6.47;;
4971;SDS011;2501;51.214;6.768;2023-09-19T10:33:27;14.10;;;3.40;;
4971;SDS011;2501;51.214;6.768;2023-09-19T10:36:04;7.82;;;2.70;;
4971;SDS011;2501;51.214;6.768;2023-09-19T10:38:37;15.38;;;3.00;;
4971;SDS011;2501;51.214;6.768;2023-09-19T10:41:07;10.00;;;2.13;;
4971;SDS011;2501;51.214;6.768;2023-09-19T10:43:37;7.35;;;3.28;;
4971;SDS011;2501;51.214;6.768;2023-09-19T10:46:09;8.77;;;2.80;;
4971;SDS011;2501;51.214;6.768;2023-09-19T10:48:38;9.38;;;3.20;;
4971;SDS011;2501;51.214;6.768;2023-09-19T10:51:09;10.70;;;2.65;;
4971;SDS011;2501;51.214;6.768;2023-09-19T10:53:48;8.95;;;2.60;;
4971;SDS011;2501;51.214;6.768;2023-09-19T10:56:21;8.20;;;2.50;;
4971;SDS011;2501;51.214;6.768;2023-09-19T10:59:04;10.03;;;3.00;;
4971;SDS011;2501;51.214;6.768;2023-09-19T11:01:44;10.02;;;2.22;;
4971;SDS011;2501;51.214;6.768;2023-09-19T11:04:23;9.77;;;3.20;;
4971;SDS011;2501;51.214;6.768;2023-09-19T11:07:00;8.55;;;2.70;;
4971;SDS011;2501;51.214;6.768;2023-09-19T11:09:46;8.68;;;2.75;;
4971;SDS011;2501;51.214;6.768;2023-09-19T11:24:32;9.82;;;3.10;;
4971;SDS011;2501;51.214;6.768;2023-09-19T11:27:13;11.50;;;2.70;;
4971;SDS011;2501;51.214;6.768;2023-09-19T11:29:42;10.65;;;2.15;;
4971;SDS011;2501;51.214;6.768;2023-09-19T11:32:14;9.15;;;2.47;;
4971;SDS011;2501;51.214;6.768;2023-09-19T11:34:45;7.10;;;2.65;;
4971;SDS011;2501;51.214;6.768;2023-09-19T11:40:27;11.15;;;2.67;;
4971;SDS011;2501;51.214;6.768;2023-09-19T11:42:59;9.30;;;2.40;;
4971;SDS011;2501;51.214;6.768;2023-09-19T11:48:28;9.10;;;2.25;;
4971;SDS011;2501;51.214;6.768;2023-09-19T11:51:00;12.77;;;2.58;;
4971;SDS011;2501;51.214;6.768;2023-09-19T11:53:32;6.03;;;2.30;;
4971;SDS011;2501;51.214;6.768;2023-09-19T11:56:04;12.00;;;2.83;;
4971;SDS011;2501;51.214;6.768;2023-09-19T11:58:38;7.53;;;2.50;;
4971;SDS011;2501;51.214;6.768;2023-09-19T12:01:09;4.75;;;2.20;;
4971;SDS011;2501;51.214;6.768;2023-09-19T12:03:46;9.53;;;2.53;;
4971;SDS011;2501;51.214;6.768;2023-09-19T12:06:15;10.57;;;2.65;;
4971;SDS011;2501;51.214;6.768;2023-09-19T12:08:44;5.13;;;2.20;;
4971;SDS011;2501;51.214;6.768;2023-09-19T12:11:14;8.52;;;2.25;;
4971;SDS011;2501;51.214;6.768;2023-09-19T12:13:47;7.30;;;2.20;;
4971;SDS011;2501;51.214;6.768;2023-09-19T12:16:19;8.97;;;2.30;;
4971;SDS011;2501;51.214;6.768;2023-09-19T12:18:49;12.30;;;2.20;;
4971;SDS011;2501;51.214;6.768;2023-09-19T12:21:21;7.97;;;2.58;;
4971;SDS011;2501;51.214;6.768;2023-09-19T12:24:05;7.45;;;2.40;;
4971;SDS011;2501;51.214;6.768;2023-09-19T12:26:40;5.80;;;2.40;;
4971;SDS011;2501;51.214;6.768;2023-09-19T12:29:15;5.95;;;2.40;;
4971;SDS011;2501;51.214;6.768;2023-09-19T12:31:49;8.60;;;2.20;;
4971;SDS011;2501;51.214;6.768;2023-09-19T12:34:23;5.70;;;2.45;;
4971;SDS011;2501;51.214;6.768;2023-09-19T12:37:05;6.57;;;2.50;;
4971;SDS011;2501;51.214;6.768;2023-09-19T12:39:37;10.50;;;2.45;;
4971;SDS011;2501;51.214;6.768;2023-09-19T12:42:07;6.18;;;2.30;;
4971;SDS011;2501;51.214;6.768;2023-09-19T12:44:42;8.40;;;2.63;;
4971;SDS011;2501;51.214;6.768;2023-09-19T12:47:13;8.75;;;2.78;;
4971;SDS011;2501;51.214;6.768;2023-09-19T12:52:43;9.50;;;2.47;;
4971;SDS011;2501;51.214;6.768;2023-09-19T12:55:23;6.50;;;2.15;;
4971;SDS011;2501;51.214;6.768;2023-09-19T12:58:00;5.17;;;2.00;;
4971;SDS011;2501;51.214;6.768;2023-09-19T13:00:38;6.33;;;2.13;;
4971;SDS011;2501;51.214;6.768;2023-09-19T13:03:15;2.88;;;1.40;;
4971;SDS011;2501;51.214;6.768;2023-09-19T13:05:47;6.53;;;2.08;;
4971;SDS011;2501;51.214;6.768;2023-09-19T13:08:21;6.60;;;2.10;;
4971;SDS011;2501;51.214;6.768;2023-09-19T13:11:07;5.70;;;1.80;;
4971;SDS011;2501;51.214;6.768;2023-09-19T13:13:38;5.38;;;2.00;;
4971;SDS011;2501;51.214;6.768;2023-09-19T13:16:11;3.80;;;1.40;;
4971;SDS011;2501;51.214;6.768;2023-09-19T13:18:45;7.47;;;1.65;;
4971;SDS011;2501;51.214;6.768;2023-09-19T13:21:16;4.68;;;1.70;;
4971;SDS011;2501;51.214;6.768;2023-09-19T13:23:54;5.90;;;2.05;;
4971;SDS011;2501;51.214;6.768;2023-09-19T13:26:24;6.38;;;1.90;;
4971;SDS011;2501;51.214;6.768;2023-09-19T13:28:53;3.15;;;1.30;;
4971;SDS011;2501;51.214;6.768;2023-09-19T13:31:24;8.30;;;2.40;;
4971;SDS011;2501;51.214;6.768;2023-09-19T13:33:53;5.37;;;1.73;;
4971;SDS011;2501;51.214;6.768;2023-09-19T13:36:21;6.80;;;2.10;;
4971;SDS011;2501;51.214;6.768;2023-09-19T13:38:49;7.82;;;1.70;;
4971;SDS011;2501;51.214;6.768;2023-09-19T13:41:18;7.50;;;1.80;;
4971;SDS011;2501;51.214;6.768;2023-09-19T13:43:46;4.82;;;1.73;;
4971;SDS011;2501;51.214;6.768;2023-09-19T13:46:15;5.18;;;1.40;;
4971;SDS011;2501;51.214;6.768;2023-09-19T13:48:53;2.53;;;1.80;;
4971;SDS011;2501;51.214;6.768;2023-09-19T13:51:21;4.30;;;1.50;;
4971;SDS011;2501;51.214;6.768;2023-09-19T13:53:51;1.60;;;1.20;;
4971;SDS011;2501;51.214;6.768;2023-09-19T13:56:19;4.10;;;1.50;;
4971;SDS011;2501;51.214;6.768;2023-09-19T13:58:47;6.75;;;1.50;;
4971;SDS011;2501;51.214;6.768;2023-09-19T14:01:17;3.63;;;1.30;;
4971;SDS011;2501;51.214;6.768;2023-09-19T14:03:45;6.05;;;1.50;;
4971;SDS011;2501;51.214;6.768;2023-09-19T14:06:17;3.00;;;1.40;;
4971;SDS011;2501;51.214;6.768;2023-09-19T14:08:46;5.97;;;1.63;;
4971;SDS011;2501;51.214;6.768;2023-09-19T14:11:15;3.30;;;1.23;;
4971;SDS011;2501;51.214;6.768;2023-09-19T14:13:43;5.45;;;1.80;;
4971;SDS011;2501;51.214;6.768;2023-09-19T14:16:14;2.25;;;1.40;;
4971;SDS011;2501;51.214;6.768;2023-09-19T14:18:44;2.45;;;1.50;;
4971;SDS011;2501;51.214;6.768;2023-09-19T14:21:13;4.45;;;1.50;;
4971;SDS011;2501;51.214;6.768;2023-09-19T14:23:44;5.50;;;1.50;;
4971;SDS011;2501;51.214;6.768;2023-09-19T14:26:14;2.92;;;1.38;;
4971;SDS011;2501;51.214;6.768;2023-09-19T14:28:43;2.88;;;1.30;;
4971;SDS011;2501;51.214;6.768;2023-09-19T14:31:12;3.38;;;1.50;;
4971;SDS011;2501;51.214;6.768;2023-09-19T14:33:41;3.35;;;1.23;;
4971;SDS011;2501;51.214;6.768;2023-09-19T14:36:09;8.23;;;1.50;;
4971;SDS011;2501;51.214;6.768;2023-09-19T14:38:38;3.60;;;1.60;;
4971;SDS011;2501;51.214;6.768;2023-09-19T14:41:09;4.40;;;1.60;;
4971;SDS011;2501;51.214;6.768;2023-09-19T14:43:38;5.30;;;1.30;;
4971;SDS011;2501;51.214;6.768;2023-09-19T14:46:06;3.83;;;1.30;;
4971;SDS011;2501;51.214;6.768;2023-09-19T14:48:35;6.15;;;1.20;;
4971;SDS011;2501;51.214;6.768;2023-09-19T14:51:04;10.50;;;1.35;;
4971;SDS011;2501;51.214;6.768;2023-09-19T14:53:34;6.13;;;1.60;;
4971;SDS011;2501;51.214;6.768;2023-09-19T14:56:04;4.20;;;1.50;;
4971;SDS011;2501;51.214;6.768;2023-09-19T14:58:38;6.50;;;1.67;;
4971;SDS011;2501;51.214;6.768;2023-09-19T15:01:07;3.72;;;1.55;;
4971;SDS011;2501;51.214;6.768;2023-09-19T15:03:37;5.95;;;1.63;;
4971;SDS011;2501;51.214;6.768;2023-09-19T15:06:08;4.85;;;1.70;;
4971;SDS011;2501;51.214;6.768;2023-09-19T15:08:39;2.30;;;1.70;;
4971;SDS011;2501;51.214;6.768;2023-09-19T15:11:11;3.40;;;1.27;;
4971;SDS011;2501;51.214;6.768;2023-09-19T15:13:44;2.83;;;1.20;;
4971;SDS011;2501;51.214;6.768;2023-09-19T15:16:14;5.13;;;1.70;;
4971;SDS011;2501;51.214;6.768;2023-09-19T15:18:43;5.60;;;1.40;;
4971;SDS011;2501;51.214;6.768;2023-09-19T15:21:13;2.10;;;1.20;;
4971;SDS011;2501;51.214;6.768;2023-09-19T15:23:42;8.18;;;1.60;;
4971;SDS011;2501;51.214;6.768;2023-09-19T15:26:12;5.80;;;1.80;;
4971;SDS011;2501;51.214;6.768;2023-09-19T15:28:45;6.47;;;1.40;;
4971;SDS011;2501;51.214;6.768;2023-09-19T15:31:14;3.00;;;1.33;;
4971;SDS011;2501;51.214;6.768;2023-09-19T15:33:43;3.90;;;1.77;;
4971;SDS011;2501;51.214;6.768;2023-09-19T15:36:12;2.30;;;1.30;;
4971;SDS011;2501;51.214;6.768;2023-09-19T15:38:56;4.95;;;1.40;;
4971;SDS011;2501;51.214;6.768;2023-09-19T15:41:26;4.20;;;1.30;;
4971;SDS011;2501;51.214;6.768;2023-09-19T15:43:59;4.10;;;1.27;;
4971;SDS011;2501;51.214;6.768;2023-09-19T15:46:28;3.00;;;1.20;;
4971;SDS011;2501;51.214;6.768;2023-09-19T15:48:58;5.00;;;1.25;;
4971;SDS011;2501;51.214;6.768;2023-09-19T15:51:27;3.47;;;1.52;;
4971;SDS011;2501;51.214;6.768;2023-09-19T15:53:56;5.70;;;1.30;;
4971;SDS011;2501;51.214;6.768;2023-09-19T15:56:25;2.60;;;1.25;;
4971;SDS011;2501;51.214;6.768;2023-09-19T15:58:55;3.92;;;1.45;;
4971;SDS011;2501;51.214;6.768;2023-09-19T16:01:26;4.40;;;1.20;;